sensor_id;sensor_type;location;lat;lon;timestamp;P1;durP1;ratioP1;P2;durP2;ratioP2
69502;SDS011;56704;54.242;12.442;2023-10-09T00:01:25;1.30;;;0.10;;
69502;SDS011;56704;54.242;12.442;2023-10-09T00:03:53;1.88;;;0.15;;
69502;SDS011;56704;54.242;12.442;2023-10-09T00:06:19;1.20;;;0.10;;
69502;SDS011;56704;54.242;12.442;2023-10-09T00:08:55;1.38;;;0.10;;
69502;SDS011;56704;54.242;12.442;2023-10-09T00:11:21;1.53;;;0.20;;
69502;SDS011;56704;54.242;12.442;2023-10-09T00:13:54;1.35;;;0.10;;
69502;SDS011;56704;54.242;12.442;2023-10-09T00:16:24;1.80;;;0.20;;
69502;SDS011;56704;54.242;12.442;2023-10-09T00:19:00;1.70;;;0.20;;
69502;SDS011;56704;54.242;12.442;2023-10-09T00:21:39;1.20;;;0.10;;
69502;SDS011;56704;54.242;12.442;2023-10-09T00:24:06;1.77;;;0.20;;
69502;SDS011;56704;54.242;12.442;2023-10-09T00:26:38;1.77;;;0.20;;
69502;SDS011;56704;54.242;12.442;2023-10-09T00:29:10;1.88;;;0.20;;
69502;SDS011;56704;54.242;12.442;2023-10-09T00:31:42;1.90;;;0.20;;
69502;SDS011;56704;54.242;12.442;2023-10-09T00:34:15;3.25;;;0.10;;
69502;SDS011;56704;54.242;12.442;2023-10-09T00:36:44;1.73;;;0.20;;
69502;SDS011;56704;54.242;12.442;2023-10-09T00:39:16;2.63;;;0.20;;
69502;SDS011;56704;54.242;12.442;2023-10-09T00:41:57;3.70;;;0.30;;
69502;SDS011;56704;54.242;12.442;2023-10-09T00:44:25;1.67;;;0.30;;
69502;SDS011;56704;54.242;12.442;2023-10-09T00:47:04;2.95;;;0.40;;
69502;SDS011;56704;54.242;12.442;2023-10-09T00:49:36;2.07;;;0.20;;
69502;SDS011;56704;54.242;12.442;2023-10-09T00:52:08;1.63;;;0.10;;
69502;SDS011;56704;54.242;12.442;2023-10-09T00:54:43;2.10;;;0.10;;
69502;SDS011;56704;54.242;12.442;2023-10-09T00:57:16;1.83;;;0.10;;
69502;SDS011;56704;54.242;12.442;2023-10-09T00:59:49;2.08;;;0.25;;
69502;SDS011;56704;54.242;12.442;2023-10-09T01:02:26;1.10;;;0.23;;
69502;SDS011;56704;54.242;12.442;2023-10-09T01:05:01;1.50;;;0.20;;
69502;SDS011;56704;54.242;12.442;2023-10-09T01:07:44;1.70;;;0.20;;
69502;SDS011;56704;54.242;12.442;2023-10-09T01:10:12;1.65;;;0.10;;
69502;SDS011;56704;54.242;12.442;2023-10-09T01:12:41;1.63;;;0.20;;
69502;SDS011;56704;54.242;12.442;2023-10-09T01:15:11;1.87;;;0.10;;
69502;SDS011;56704;54.242;12.442;2023-10-09T01:18:03;1.88;;;0.10;;
69502;SDS011;56704;54.242;12.442;2023-10-09T01:20:33;2.10;;;0.20;;
69502;SDS011;56704;54.242;12.442;2023-10-09T01:23:08;1.20;;;0.10;;
69502;SDS011;56704;54.242;12.442;2023-10-09T01:25:36;2.42;;;0.20;;
69502;SDS011;56704;54.242;12.442;2023-10-09T01:28:09;2.17;;;0.20;;
69502;SDS011;56704;54.242;12.442;2023-10-09T01:30:41;1.40;;;0.15;;
69502;SDS011;56704;54.242;12.442;2023-10-09T01:33:09;1.48;;;0.20;;
69502;SDS011;56704;54.242;12.442;2023-10-09T01:35:47;1.95;;;0.20;;
69502;SDS011;56704;54.242;12.442;2023-10-09T01:38:18;1.83;;;0.20;;
69502;SDS011;56704;54.242;12.442;2023-10-09T01:40:56;1.67;;;0.20;;
69502;SDS011;56704;54.242;12.442;2023-10-09T01:43:29;1.10;;;0.10;;
69502;SDS011;56704;54.242;12.442;2023-10-09T01:45:59;2.00;;;0.20;;
69502;SDS011;56704;54.242;12.442;2023-10-09T01:48:27;1.42;;;0.20;;
69502;SDS011;56704;54.242;12.442;2023-10-09T01:50:57;1.67;;;0.20;;
69502;SDS011;56704;54.242;12.442;2023-10-09T01:53:26;1.40;;;0.20;;
69502;SDS011;56704;54.242;12.442;2023-10-09T01:55:55;1.92;;;0.20;;
69502;SDS011;56704;54.242;12.442;2023-10-09T01:58:24;3.65;;;0.30;;
69502;SDS011;56704;54.242;12.442;2023-10-09T02:00:52;1.52;;;0.17;;
69502;SDS011;56704;54.242;12.442;2023-10-09T02:03:21;1.30;;;0.10;;
69502;SDS011;56704;54.242;12.442;2023-10-09T02:05:50;1.20;;;0.17;;
69502;SDS011;56704;54.242;12.442;2023-10-09T02:08:18;2.97;;;0.35;;
69502;SDS011;56704;54.242;12.442;2023-10-09T02:10:48;4.32;;;0.40;;
69502;SDS011;56704;54.242;12.442;2023-10-09T02:13:19;2.33;;;0.30;;
69502;SDS011;56704;54.242;12.442;2023-10-09T02:15:55;3.22;;;0.20;;
69502;SDS011;56704;54.242;12.442;2023-10-09T02:18:38;1.57;;;0.20;;
69502;SDS011;56704;54.242;12.442;2023-10-09T02:21:17;2.72;;;0.30;;
69502;SDS011;56704;54.242;12.442;2023-10-09T02:23:53;2.35;;;0.20;;
69502;SDS011;56704;54.242;12.442;2023-10-09T02:26:23;1.73;;;0.20;;
69502;SDS011;56704;54.242;12.442;2023-10-09T02:28:51;2.65;;;0.30;;
69502;SDS011;56704;54.242;12.442;2023-10-09T02:31:23;2.33;;;0.13;;
69502;SDS011;56704;54.242;12.442;2023-10-09T02:33:53;2.45;;;0.32;;
69502;SDS011;56704;54.242;12.442;2023-10-09T02:36:20;2.42;;;0.20;;
69502;SDS011;56704;54.242;12.442;2023-10-09T02:38:47;2.67;;;0.25;;
69502;SDS011;56704;54.242;12.442;2023-10-09T02:41:18;2.03;;;0.20;;
69502;SDS011;56704;54.242;12.442;2023-10-09T02:43:54;2.53;;;0.30;;
69502;SDS011;56704;54.242;12.442;2023-10-09T02:46:21;2.63;;;0.30;;
69502;SDS011;56704;54.242;12.442;2023-10-09T02:48:55;1.85;;;0.30;;
69502;SDS011;56704;54.242;12.442;2023-10-09T02:51:23;3.15;;;0.30;;
69502;SDS011;56704;54.242;12.442;2023-10-09T02:53:58;3.22;;;0.38;;
69502;SDS011;56704;54.242;12.442;2023-10-09T02:56:32;1.63;;;0.30;;
69502;SDS011;56704;54.242;12.442;2023-10-09T02:59:04;1.80;;;0.30;;
69502;SDS011;56704;54.242;12.442;2023-10-09T03:01:32;1.85;;;0.30;;
69502;SDS011;56704;54.242;12.442;2023-10-09T03:04:00;3.33;;;0.55;;
69502;SDS011;56704;54.242;12.442;2023-10-09T03:06:28;2.33;;;0.47;;
69502;SDS011;56704;54.242;12.442;2023-10-09T03:08:56;3.13;;;0.40;;
69502;SDS011;56704;54.242;12.442;2023-10-09T03:11:23;2.72;;;0.40;;
69502;SDS011;56704;54.242;12.442;2023-10-09T03:13:51;3.05;;;0.40;;
69502;SDS011;56704;54.242;12.442;2023-10-09T03:16:20;3.63;;;0.40;;
69502;SDS011;56704;54.242;12.442;2023-10-09T03:18:46;2.15;;;0.40;;
69502;SDS011;56704;54.242;12.442;2023-10-09T03:21:15;3.57;;;0.33;;
69502;SDS011;56704;54.242;12.442;2023-10-09T03:23:42;2.03;;;0.30;;
69502;SDS011;56704;54.242;12.442;2023-10-09T03:26:09;2.38;;;0.30;;
69502;SDS011;56704;54.242;12.442;2023-10-09T03:28:36;2.03;;;0.30;;
69502;SDS011;56704;54.242;12.442;2023-10-09T03:31:02;3.30;;;0.32;;
69502;SDS011;56704;54.242;12.442;2023-10-09T03:33:32;3.90;;;1.27;;
69502;SDS011;56704;54.242;12.442;2023-10-09T03:35:59;2.17;;;0.30;;
69502;SDS011;56704;54.242;12.442;2023-10-09T03:38:26;2.05;;;0.30;;
69502;SDS011;56704;54.242;12.442;2023-10-09T03:40:54;1.80;;;0.25;;
69502;SDS011;56704;54.242;12.442;2023-10-09T03:43:21;2.67;;;0.30;;
69502;SDS011;56704;54.242;12.442;2023-10-09T03:45:48;2.20;;;0.30;;
69502;SDS011;56704;54.242;12.442;2023-10-09T03:48:17;2.65;;;0.40;;
69502;SDS011;56704;54.242;12.442;2023-10-09T03:50:52;4.10;;;0.40;;
69502;SDS011;56704;54.242;12.442;2023-10-09T03:53:33;2.10;;;0.20;;
69502;SDS011;56704;54.242;12.442;2023-10-09T03:56:01;2.00;;;0.22;;
69502;SDS011;56704;54.242;12.442;2023-10-09T03:58:30;3.40;;;0.53;;
69502;SDS011;56704;54.242;12.442;2023-10-09T04:00:58;2.88;;;0.35;;
69502;SDS011;56704;54.242;12.442;2023-10-09T04:03:25;3.00;;;0.40;;
69502;SDS011;56704;54.242;12.442;2023-10-09T04:05:53;3.65;;;0.47;;
69502;SDS011;56704;54.242;12.442;2023-10-09T04:08:20;3.63;;;0.55;;
69502;SDS011;56704;54.242;12.442;2023-10-09T04:10:53;2.17;;;0.40;;
69502;SDS011;56704;54.242;12.442;2023-10-09T04:13:26;2.97;;;0.47;;
69502;SDS011;56704;54.242;12.442;2023-10-09T04:15:58;5.28;;;0.40;;
69502;SDS011;56704;54.242;12.442;2023-10-09T04:18:34;1.77;;;0.32;;
69502;SDS011;56704;54.242;12.442;2023-10-09T04:21:04;3.08;;;0.38;;
69502;SDS011;56704;54.242;12.442;2023-10-09T04:23:59;1.87;;;0.30;;
69502;SDS011;56704;54.242;12.442;2023-10-09T04:26:34;2.30;;;0.40;;
69502;SDS011;56704;54.242;12.442;2023-10-09T04:29:02;2.58;;;0.40;;
69502;SDS011;56704;54.242;12.442;2023-10-09T04:31:31;1.88;;;0.30;;
69502;SDS011;56704;54.242;12.442;2023-10-09T04:34:02;2.80;;;0.30;;
69502;SDS011;56704;54.242;12.442;2023-10-09T04:36:50;3.53;;;0.40;;
69502;SDS011;56704;54.242;12.442;2023-10-09T04:39:22;2.95;;;0.38;;
69502;SDS011;56704;54.242;12.442;2023-10-09T04:42:11;3.50;;;0.65;;
69502;SDS011;56704;54.242;12.442;2023-10-09T04:44:56;2.58;;;0.60;;
69502;SDS011;56704;54.242;12.442;2023-10-09T04:47:44;2.30;;;0.50;;
69502;SDS011;56704;54.242;12.442;2023-10-09T04:50:23;4.00;;;0.60;;
69502;SDS011;56704;54.242;12.442;2023-10-09T04:53:13;2.30;;;0.40;;
69502;SDS011;56704;54.242;12.442;2023-10-09T04:55:47;2.90;;;0.55;;
69502;SDS011;56704;54.242;12.442;2023-10-09T04:58:20;2.47;;;0.50;;
69502;SDS011;56704;54.242;12.442;2023-10-09T05:00:51;3.03;;;0.50;;
69502;SDS011;56704;54.242;12.442;2023-10-09T05:03:37;2.83;;;0.40;;
69502;SDS011;56704;54.242;12.442;2023-10-09T05:06:09;4.47;;;0.60;;
69502;SDS011;56704;54.242;12.442;2023-10-09T05:09:09;3.88;;;0.60;;
69502;SDS011;56704;54.242;12.442;2023-10-09T05:11:38;2.53;;;0.60;;
69502;SDS011;56704;54.242;12.442;2023-10-09T05:14:34;5.25;;;0.63;;
69502;SDS011;56704;54.242;12.442;2023-10-09T05:17:19;3.10;;;0.47;;
69502;SDS011;56704;54.242;12.442;2023-10-09T05:19:48;2.80;;;0.80;;
69502;SDS011;56704;54.242;12.442;2023-10-09T05:22:20;2.83;;;0.50;;
69502;SDS011;56704;54.242;12.442;2023-10-09T05:25:03;2.83;;;0.68;;
69502;SDS011;56704;54.242;12.442;2023-10-09T05:27:41;2.33;;;0.40;;
69502;SDS011;56704;54.242;12.442;2023-10-09T05:30:16;3.60;;;0.70;;
69502;SDS011;56704;54.242;12.442;2023-10-09T05:32:52;6.57;;;1.08;;
69502;SDS011;56704;54.242;12.442;2023-10-09T05:35:23;2.08;;;0.43;;
69502;SDS011;56704;54.242;12.442;2023-10-09T05:38:04;2.60;;;0.50;;
69502;SDS011;56704;54.242;12.442;2023-10-09T05:40:41;2.78;;;0.60;;
69502;SDS011;56704;54.242;12.442;2023-10-09T05:43:09;3.97;;;0.57;;
69502;SDS011;56704;54.242;12.442;2023-10-09T05:45:55;3.58;;;0.70;;
69502;SDS011;56704;54.242;12.442;2023-10-09T05:48:33;3.10;;;0.70;;
69502;SDS011;56704;54.242;12.442;2023-10-09T05:51:17;2.88;;;0.50;;
69502;SDS011;56704;54.242;12.442;2023-10-09T05:53:57;3.17;;;0.50;;
69502;SDS011;56704;54.242;12.442;2023-10-09T05:57:10;3.07;;;0.50;;
69502;SDS011;56704;54.242;12.442;2023-10-09T06:00:07;3.03;;;0.50;;
69502;SDS011;56704;54.242;12.442;2023-10-09T06:02:52;5.13;;;0.50;;
69502;SDS011;56704;54.242;12.442;2023-10-09T06:05:36;2.53;;;0.60;;
69502;SDS011;56704;54.242;12.442;2023-10-09T06:08:17;2.33;;;0.50;;
69502;SDS011;56704;54.242;12.442;2023-10-09T06:10:50;3.03;;;0.60;;
69502;SDS011;56704;54.242;12.442;2023-10-09T06:13:32;5.97;;;0.90;;
69502;SDS011;56704;54.242;12.442;2023-10-09T06:16:10;5.15;;;0.70;;
69502;SDS011;56704;54.242;12.442;2023-10-09T06:18:45;5.25;;;0.60;;
69502;SDS011;56704;54.242;12.442;2023-10-09T06:21:32;3.10;;;0.60;;
69502;SDS011;56704;54.242;12.442;2023-10-09T06:24:06;4.50;;;0.80;;
69502;SDS011;56704;54.242;12.442;2023-10-09T06:26:41;2.95;;;0.60;;
69502;SDS011;56704;54.242;12.442;2023-10-09T06:29:18;4.00;;;0.93;;
69502;SDS011;56704;54.242;12.442;2023-10-09T06:32:12;3.95;;;0.73;;
69502;SDS011;56704;54.242;12.442;2023-10-09T06:34:57;3.97;;;0.90;;
69502;SDS011;56704;54.242;12.442;2023-10-09T06:37:38;2.72;;;0.70;;
69502;SDS011;56704;54.242;12.442;2023-10-09T06:40:25;4.18;;;0.90;;
69502;SDS011;56704;54.242;12.442;2023-10-09T06:43:09;5.10;;;1.13;;
69502;SDS011;56704;54.242;12.442;2023-10-09T06:45:42;3.60;;;1.15;;
69502;SDS011;56704;54.242;12.442;2023-10-09T06:48:20;4.88;;;1.00;;
69502;SDS011;56704;54.242;12.442;2023-10-09T06:51:05;4.60;;;1.10;;
69502;SDS011;56704;54.242;12.442;2023-10-09T06:53:38;4.25;;;1.08;;
69502;SDS011;56704;54.242;12.442;2023-10-09T06:56:23;3.63;;;0.93;;
69502;SDS011;56704;54.242;12.442;2023-10-09T06:58:55;4.72;;;0.85;;
69502;SDS011;56704;54.242;12.442;2023-10-09T07:01:22;3.78;;;0.80;;
69502;SDS011;56704;54.242;12.442;2023-10-09T07:04:06;4.80;;;0.85;;
69502;SDS011;56704;54.242;12.442;2023-10-09T07:06:43;2.92;;;0.70;;
69502;SDS011;56704;54.242;12.442;2023-10-09T07:09:18;5.30;;;1.00;;
69502;SDS011;56704;54.242;12.442;2023-10-09T07:11:45;4.63;;;1.00;;
69502;SDS011;56704;54.242;12.442;2023-10-09T07:14:28;4.03;;;0.90;;
69502;SDS011;56704;54.242;12.442;2023-10-09T07:17:12;3.97;;;0.70;;
69502;SDS011;56704;54.242;12.442;2023-10-09T07:19:48;4.13;;;0.85;;
69502;SDS011;56704;54.242;12.442;2023-10-09T07:22:38;3.30;;;0.93;;
69502;SDS011;56704;54.242;12.442;2023-10-09T07:25:22;3.67;;;0.90;;
69502;SDS011;56704;54.242;12.442;2023-10-09T07:28:07;4.03;;;1.35;;
69502;SDS011;56704;54.242;12.442;2023-10-09T07:30:54;5.15;;;1.70;;
69502;SDS011;56704;54.242;12.442;2023-10-09T07:33:23;3.97;;;1.42;;
69502;SDS011;56704;54.242;12.442;2023-10-09T07:36:00;4.97;;;2.00;;
69502;SDS011;56704;54.242;12.442;2023-10-09T07:38:31;5.00;;;1.90;;
69502;SDS011;56704;54.242;12.442;2023-10-09T07:41:01;5.65;;;1.88;;
69502;SDS011;56704;54.242;12.442;2023-10-09T07:43:54;6.60;;;1.77;;
69502;SDS011;56704;54.242;12.442;2023-10-09T07:46:21;5.55;;;1.63;;
69502;SDS011;56704;54.242;12.442;2023-10-09T07:48:59;5.07;;;1.73;;
69502;SDS011;56704;54.242;12.442;2023-10-09T07:51:35;6.25;;;1.88;;
69502;SDS011;56704;54.242;12.442;2023-10-09T07:54:03;5.90;;;1.98;;
69502;SDS011;56704;54.242;12.442;2023-10-09T07:56:42;7.13;;;2.28;;
69502;SDS011;56704;54.242;12.442;2023-10-09T07:59:10;6.55;;;2.20;;
69502;SDS011;56704;54.242;12.442;2023-10-09T08:01:39;7.73;;;2.30;;
69502;SDS011;56704;54.242;12.442;2023-10-09T08:04:17;6.68;;;2.13;;
69502;SDS011;56704;54.242;12.442;2023-10-09T08:06:46;7.05;;;1.90;;
69502;SDS011;56704;54.242;12.442;2023-10-09T08:09:13;7.10;;;2.20;;
69502;SDS011;56704;54.242;12.442;2023-10-09T08:12:11;8.15;;;2.33;;
69502;SDS011;56704;54.242;12.442;2023-10-09T08:15:01;6.73;;;2.00;;
69502;SDS011;56704;54.242;12.442;2023-10-09T08:17:42;5.35;;;2.00;;
69502;SDS011;56704;54.242;12.442;2023-10-09T08:20:13;5.15;;;1.38;;
69502;SDS011;56704;54.242;12.442;2023-10-09T08:22:43;6.03;;;1.50;;
69502;SDS011;56704;54.242;12.442;2023-10-09T08:25:15;5.70;;;1.45;;
69502;SDS011;56704;54.242;12.442;2023-10-09T08:27:56;5.10;;;1.60;;
69502;SDS011;56704;54.242;12.442;2023-10-09T08:30:44;5.60;;;1.80;;
69502;SDS011;56704;54.242;12.442;2023-10-09T08:33:15;4.50;;;1.20;;
69502;SDS011;56704;54.242;12.442;2023-10-09T08:35:59;4.85;;;1.30;;
69502;SDS011;56704;54.242;12.442;2023-10-09T08:38:30;3.75;;;1.02;;
69502;SDS011;56704;54.242;12.442;2023-10-09T08:41:06;4.20;;;1.00;;
69502;SDS011;56704;54.242;12.442;2023-10-09T08:43:47;3.50;;;1.13;;
69502;SDS011;56704;54.242;12.442;2023-10-09T08:46:16;4.20;;;1.40;;
69502;SDS011;56704;54.242;12.442;2023-10-09T08:48:47;6.65;;;1.60;;
69502;SDS011;56704;54.242;12.442;2023-10-09T08:51:14;4.18;;;1.00;;
69502;SDS011;56704;54.242;12.442;2023-10-09T08:53:44;5.70;;;1.43;;
69502;SDS011;56704;54.242;12.442;2023-10-09T08:56:11;5.85;;;1.73;;
69502;SDS011;56704;54.242;12.442;2023-10-09T08:58:44;5.03;;;1.52;;
69502;SDS011;56704;54.242;12.442;2023-10-09T09:01:14;4.68;;;1.10;;
69502;SDS011;56704;54.242;12.442;2023-10-09T09:03:42;5.78;;;1.40;;
69502;SDS011;56704;54.242;12.442;2023-10-09T09:06:09;4.93;;;1.30;;
69502;SDS011;56704;54.242;12.442;2023-10-09T09:08:36;4.95;;;1.30;;
69502;SDS011;56704;54.242;12.442;2023-10-09T09:11:05;4.88;;;0.90;;
69502;SDS011;56704;54.242;12.442;2023-10-09T09:13:40;4.28;;;1.17;;
69502;SDS011;56704;54.242;12.442;2023-10-09T09:16:13;4.20;;;1.10;;
69502;SDS011;56704;54.242;12.442;2023-10-09T09:18:51;4.33;;;1.10;;
69502;SDS011;56704;54.242;12.442;2023-10-09T09:21:26;5.57;;;1.55;;
69502;SDS011;56704;54.242;12.442;2023-10-09T09:23:53;3.67;;;1.00;;
69502;SDS011;56704;54.242;12.442;2023-10-09T09:26:37;4.28;;;1.20;;
69502;SDS011;56704;54.242;12.442;2023-10-09T09:29:10;3.95;;;0.93;;
69502;SDS011;56704;54.242;12.442;2023-10-09T09:31:37;4.17;;;1.13;;
69502;SDS011;56704;54.242;12.442;2023-10-09T09:34:04;3.63;;;0.80;;
69502;SDS011;56704;54.242;12.442;2023-10-09T09:36:49;4.03;;;1.13;;
69502;SDS011;56704;54.242;12.442;2023-10-09T09:39:20;4.57;;;0.88;;
69502;SDS011;56704;54.242;12.442;2023-10-09T09:41:54;4.75;;;1.20;;
69502;SDS011;56704;54.242;12.442;2023-10-09T09:44:22;3.33;;;1.00;;
69502;SDS011;56704;54.242;12.442;2023-10-09T09:46:51;4.72;;;1.50;;
69502;SDS011;56704;54.242;12.442;2023-10-09T09:49:20;4.15;;;1.10;;
69502;SDS011;56704;54.242;12.442;2023-10-09T09:51:48;5.05;;;1.27;;
69502;SDS011;56704;54.242;12.442;2023-10-09T09:54:15;5.00;;;1.30;;
69502;SDS011;56704;54.242;12.442;2023-10-09T09:56:42;4.13;;;1.10;;
69502;SDS011;56704;54.242;12.442;2023-10-09T09:59:17;4.78;;;1.33;;
69502;SDS011;56704;54.242;12.442;2023-10-09T10:01:47;5.57;;;1.10;;
69502;SDS011;56704;54.242;12.442;2023-10-09T10:04:23;3.90;;;1.10;;
69502;SDS011;56704;54.242;12.442;2023-10-09T10:06:52;3.47;;;1.10;;
69502;SDS011;56704;54.242;12.442;2023-10-09T10:09:34;5.63;;;1.30;;
69502;SDS011;56704;54.242;12.442;2023-10-09T10:12:05;3.97;;;1.30;;
69502;SDS011;56704;54.242;12.442;2023-10-09T10:17:24;4.38;;;1.70;;
69502;SDS011;56704;54.242;12.442;2023-10-09T10:19:59;5.68;;;1.40;;
69502;SDS011;56704;54.242;12.442;2023-10-09T10:22:39;4.30;;;1.60;;
69502;SDS011;56704;54.242;12.442;2023-10-09T10:25:13;5.20;;;1.30;;
69502;SDS011;56704;54.242;12.442;2023-10-09T10:28:19;4.57;;;1.60;;
69502;SDS011;56704;54.242;12.442;2023-10-09T10:31:05;4.50;;;1.40;;
69502;SDS011;56704;54.242;12.442;2023-10-09T10:36:32;5.03;;;1.90;;
69502;SDS011;56704;54.242;12.442;2023-10-09T10:39:00;5.97;;;1.73;;
69502;SDS011;56704;54.242;12.442;2023-10-09T10:41:34;5.78;;;1.80;;
69502;SDS011;56704;54.242;12.442;2023-10-09T10:44:15;4.78;;;1.90;;
69502;SDS011;56704;54.242;12.442;2023-10-09T10:47:08;5.20;;;1.92;;
69502;SDS011;56704;54.242;12.442;2023-10-09T10:49:49;5.83;;;2.07;;
69502;SDS011;56704;54.242;12.442;2023-10-09T10:52:20;5.22;;;2.10;;
69502;SDS011;56704;54.242;12.442;2023-10-09T10:54:47;4.97;;;1.75;;
69502;SDS011;56704;54.242;12.442;2023-10-09T10:57:34;5.15;;;2.00;;
69502;SDS011;56704;54.242;12.442;2023-10-09T11:00:18;6.22;;;2.13;;
69502;SDS011;56704;54.242;12.442;2023-10-09T11:03:00;6.20;;;2.00;;
69502;SDS011;56704;54.242;12.442;2023-10-09T11:05:39;4.97;;;1.90;;
69502;SDS011;56704;54.242;12.442;2023-10-09T11:08:11;5.25;;;1.83;;
69502;SDS011;56704;54.242;12.442;2023-10-09T11:10:38;4.50;;;1.52;;
69502;SDS011;56704;54.242;12.442;2023-10-09T11:13:20;5.15;;;1.90;;
69502;SDS011;56704;54.242;12.442;2023-10-09T11:16:00;5.63;;;1.80;;
69502;SDS011;56704;54.242;12.442;2023-10-09T11:18:55;5.53;;;2.35;;
69502;SDS011;56704;54.242;12.442;2023-10-09T11:21:29;4.25;;;1.70;;
69502;SDS011;56704;54.242;12.442;2023-10-09T11:24:06;6.53;;;2.40;;
69502;SDS011;56704;54.242;12.442;2023-10-09T11:26:51;4.40;;;1.73;;
69502;SDS011;56704;54.242;12.442;2023-10-09T11:29:21;5.50;;;2.10;;
69502;SDS011;56704;54.242;12.442;2023-10-09T11:31:58;6.05;;;2.17;;
69502;SDS011;56704;54.242;12.442;2023-10-09T11:34:27;5.20;;;1.92;;
69502;SDS011;56704;54.242;12.442;2023-10-09T11:36:57;5.28;;;2.20;;
69502;SDS011;56704;54.242;12.442;2023-10-09T11:39:26;4.70;;;1.67;;
69502;SDS011;56704;54.242;12.442;2023-10-09T11:42:06;4.13;;;1.83;;
69502;SDS011;56704;54.242;12.442;2023-10-09T11:44:37;4.95;;;1.95;;
69502;SDS011;56704;54.242;12.442;2023-10-09T11:47:10;4.95;;;1.80;;
69502;SDS011;56704;54.242;12.442;2023-10-09T11:49:51;5.35;;;1.65;;
69502;SDS011;56704;54.242;12.442;2023-10-09T11:52:54;6.75;;;2.25;;
69502;SDS011;56704;54.242;12.442;2023-10-09T11:55:39;5.50;;;2.40;;
69502;SDS011;56704;54.242;12.442;2023-10-09T11:58:06;7.75;;;2.28;;
69502;SDS011;56704;54.242;12.442;2023-10-09T12:00:33;5.35;;;2.30;;
69502;SDS011;56704;54.242;12.442;2023-10-09T12:03:12;5.65;;;2.28;;
69502;SDS011;56704;54.242;12.442;2023-10-09T12:05:43;6.65;;;2.40;;
69502;SDS011;56704;54.242;12.442;2023-10-09T12:08:10;5.90;;;2.37;;
69502;SDS011;56704;54.242;12.442;2023-10-09T12:10:40;5.38;;;2.00;;
69502;SDS011;56704;54.242;12.442;2023-10-09T12:13:07;6.45;;;2.20;;
69502;SDS011;56704;54.242;12.442;2023-10-09T12:15:34;5.85;;;2.10;;
69502;SDS011;56704;54.242;12.442;2023-10-09T12:18:04;5.85;;;2.50;;
69502;SDS011;56704;54.242;12.442;2023-10-09T12:20:39;4.77;;;2.20;;
69502;SDS011;56704;54.242;12.442;2023-10-09T12:23:08;5.18;;;2.38;;
69502;SDS011;56704;54.242;12.442;2023-10-09T12:25:40;5.45;;;2.15;;
69502;SDS011;56704;54.242;12.442;2023-10-09T12:28:10;6.43;;;2.28;;
69502;SDS011;56704;54.242;12.442;2023-10-09T12:30:38;5.50;;;2.05;;
69502;SDS011;56704;54.242;12.442;2023-10-09T12:33:05;5.30;;;2.00;;
69502;SDS011;56704;54.242;12.442;2023-10-09T12:35:35;5.78;;;2.70;;
69502;SDS011;56704;54.242;12.442;2023-10-09T12:38:03;6.28;;;2.22;;
69502;SDS011;56704;54.242;12.442;2023-10-09T12:40:35;4.63;;;2.00;;
69502;SDS011;56704;54.242;12.442;2023-10-09T12:43:03;4.53;;;2.05;;
69502;SDS011;56704;54.242;12.442;2023-10-09T12:45:33;4.63;;;2.13;;
69502;SDS011;56704;54.242;12.442;2023-10-09T12:48:00;5.28;;;2.10;;
69502;SDS011;56704;54.242;12.442;2023-10-09T12:50:28;5.03;;;2.05;;
69502;SDS011;56704;54.242;12.442;2023-10-09T12:52:58;5.15;;;1.80;;
69502;SDS011;56704;54.242;12.442;2023-10-09T12:55:35;5.10;;;1.77;;
69502;SDS011;56704;54.242;12.442;2023-10-09T12:58:05;5.07;;;1.73;;
69502;SDS011;56704;54.242;12.442;2023-10-09T13:00:33;4.88;;;1.70;;
69502;SDS011;56704;54.242;12.442;2023-10-09T13:03:03;4.95;;;1.95;;
69502;SDS011;56704;54.242;12.442;2023-10-09T13:05:41;5.53;;;2.08;;
69502;SDS011;56704;54.242;12.442;2023-10-09T13:08:20;5.93;;;2.20;;
69502;SDS011;56704;54.242;12.442;2023-10-09T13:10:50;4.70;;;1.90;;
69502;SDS011;56704;54.242;12.442;2023-10-09T13:13:24;5.93;;;1.85;;
69502;SDS011;56704;54.242;12.442;2023-10-09T13:16:01;5.60;;;1.88;;
69502;SDS011;56704;54.242;12.442;2023-10-09T13:18:31;4.80;;;1.90;;
69502;SDS011;56704;54.242;12.442;2023-10-09T13:20:57;4.88;;;2.15;;
69502;SDS011;56704;54.242;12.442;2023-10-09T13:23:28;5.90;;;1.63;;
69502;SDS011;56704;54.242;12.442;2023-10-09T13:26:04;4.22;;;1.50;;
69502;SDS011;56704;54.242;12.442;2023-10-09T13:28:43;6.05;;;1.90;;
69502;SDS011;56704;54.242;12.442;2023-10-09T13:31:10;6.68;;;1.83;;
69502;SDS011;56704;54.242;12.442;2023-10-09T13:33:39;4.78;;;1.45;;
69502;SDS011;56704;54.242;12.442;2023-10-09T13:36:06;6.37;;;2.20;;
69502;SDS011;56704;54.242;12.442;2023-10-09T13:38:41;6.28;;;2.10;;
69502;SDS011;56704;54.242;12.442;2023-10-09T13:41:09;6.30;;;2.05;;
69502;SDS011;56704;54.242;12.442;2023-10-09T13:43:38;7.70;;;2.10;;
69502;SDS011;56704;54.242;12.442;2023-10-09T13:46:06;7.95;;;2.70;;
69502;SDS011;56704;54.242;12.442;2023-10-09T13:48:33;5.63;;;2.57;;
69502;SDS011;56704;54.242;12.442;2023-10-09T13:51:03;5.53;;;2.38;;
69502;SDS011;56704;54.242;12.442;2023-10-09T13:53:32;4.70;;;1.98;;
69502;SDS011;56704;54.242;12.442;2023-10-09T13:56:01;6.15;;;2.38;;
69502;SDS011;56704;54.242;12.442;2023-10-09T13:58:29;5.45;;;2.30;;
69502;SDS011;56704;54.242;12.442;2023-10-09T14:00:56;6.83;;;2.37;;
69502;SDS011;56704;54.242;12.442;2023-10-09T14:03:23;5.57;;;2.33;;
69502;SDS011;56704;54.242;12.442;2023-10-09T14:05:52;8.02;;;2.53;;
69502;SDS011;56704;54.242;12.442;2023-10-09T14:08:21;5.35;;;2.40;;
69502;SDS011;56704;54.242;12.442;2023-10-09T14:10:48;5.57;;;2.47;;
69502;SDS011;56704;54.242;12.442;2023-10-09T14:13:17;8.80;;;2.80;;
69502;SDS011;56704;54.242;12.442;2023-10-09T14:15:52;8.93;;;2.90;;
69502;SDS011;56704;54.242;12.442;2023-10-09T14:18:20;7.22;;;2.40;;
69502;SDS011;56704;54.242;12.442;2023-10-09T14:20:47;7.18;;;2.38;;
69502;SDS011;56704;54.242;12.442;2023-10-09T14:23:15;5.72;;;2.50;;
69502;SDS011;56704;54.242;12.442;2023-10-09T14:25:45;4.87;;;2.07;;
69502;SDS011;56704;54.242;12.442;2023-10-09T14:28:14;6.40;;;2.53;;
69502;SDS011;56704;54.242;12.442;2023-10-09T14:30:43;4.82;;;1.88;;
69502;SDS011;56704;54.242;12.442;2023-10-09T14:33:15;7.05;;;2.33;;
69502;SDS011;56704;54.242;12.442;2023-10-09T14:35:48;5.07;;;2.00;;
69502;SDS011;56704;54.242;12.442;2023-10-09T14:38:17;4.87;;;2.30;;
69502;SDS011;56704;54.242;12.442;2023-10-09T14:40:47;5.50;;;2.20;;
69502;SDS011;56704;54.242;12.442;2023-10-09T14:43:14;8.38;;;2.88;;
69502;SDS011;56704;54.242;12.442;2023-10-09T14:45:49;5.57;;;2.17;;
69502;SDS011;56704;54.242;12.442;2023-10-09T14:48:20;6.78;;;2.60;;
69502;SDS011;56704;54.242;12.442;2023-10-09T14:50:51;7.50;;;2.73;;
69502;SDS011;56704;54.242;12.442;2023-10-09T14:53:19;5.93;;;3.00;;
69502;SDS011;56704;54.242;12.442;2023-10-09T14:55:53;7.70;;;3.20;;
69502;SDS011;56704;54.242;12.442;2023-10-09T14:58:20;8.32;;;3.20;;
69502;SDS011;56704;54.242;12.442;2023-10-09T15:00:49;11.43;;;3.67;;
69502;SDS011;56704;54.242;12.442;2023-10-09T15:03:16;9.83;;;3.43;;
69502;SDS011;56704;54.242;12.442;2023-10-09T15:05:46;6.68;;;3.13;;
69502;SDS011;56704;54.242;12.442;2023-10-09T15:08:13;7.32;;;2.72;;
69502;SDS011;56704;54.242;12.442;2023-10-09T15:10:46;8.18;;;4.05;;
69502;SDS011;56704;54.242;12.442;2023-10-09T15:13:12;11.20;;;4.60;;
69502;SDS011;56704;54.242;12.442;2023-10-09T15:15:42;11.80;;;5.13;;
69502;SDS011;56704;54.242;12.442;2023-10-09T15:18:10;10.55;;;5.05;;